sensor_id;sensor_type;location;lat;lon;timestamp;temperature;humidity
49821;DHT22;36893;52.520;13.450;2023-05-17T00:08:17;24.50;57.40
49821;DHT22;36893;52.520;13.450;2023-05-17T00:18:18;24.50;57.40
49821;DHT22;36893;52.520;13.450;2023-05-17T00:28:18;24.50;57.40
49821;DHT22;36893;52.520;13.450;2023-05-17T00:38:19;24.50;57.30
49821;DHT22;36893;52.520;13.450;2023-05-17T00:48:20;24.50;57.30
49821;DHT22;36893;52.520;13.450;2023-05-17T00:58:21;24.40;57.30
49821;DHT22;36893;52.520;13.450;2023-05-17T01:08:22;24.40;57.30
49821;DHT22;36893;52.520;13.450;2023-05-17T01:18:30;24.40;57.30
49821;DHT22;36893;52.520;13.450;2023-05-17T01:28:39;24.40;57.30
49821;DHT22;36893;52.520;13.450;2023-05-17T01:38:41;24.40;57.20
49821;DHT22;36893;52.520;13.450;2023-05-17T01:48:53;24.40;57.20
49821;DHT22;36893;52.520;13.450;2023-05-17T01:59:01;24.40;57.20
49821;DHT22;36893;52.520;13.450;2023-05-17T02:09:04;24.40;57.20
49821;DHT22;36893;52.520;13.450;2023-05-17T02:19:04;24.30;57.10
49821;DHT22;36893;52.520;13.450;2023-05-17T02:29:06;24.30;57.00
49821;DHT22;36893;52.520;13.450;2023-05-17T02:39:07;24.30;57.00
49821;DHT22;36893;52.520;13.450;2023-05-17T02:49:08;24.30;57.60
49821;DHT22;36893;52.520;13.450;2023-05-17T02:59:08;24.30;57.10
49821;DHT22;36893;52.520;13.450;2023-05-17T03:09:09;24.30;57.10
49821;DHT22;36893;52.520;13.450;2023-05-17T03:19:09;24.30;57.10
49821;DHT22;36893;52.520;13.450;2023-05-17T03:29:10;24.30;57.20
49821;DHT22;36893;52.520;13.450;2023-05-17T03:39:11;24.30;57.20
49821;DHT22;36893;52.520;13.450;2023-05-17T03:49:11;24.30;57.30
49821;DHT22;36893;52.520;13.450;2023-05-17T03:59:12;24.20;57.30
49821;DHT22;36893;52.520;13.450;2023-05-17T04:09:13;24.20;57.30
49821;DHT22;36893;52.520;13.450;2023-05-17T04:19:14;24.30;57.40
49821;DHT22;36893;52.520;13.450;2023-05-17T04:29:15;24.20;57.30
49821;DHT22;36893;52.520;13.450;2023-05-17T04:39:16;24.20;57.30
49821;DHT22;36893;52.520;13.450;2023-05-17T04:49:17;24.30;57.40
49821;DHT22;36893;52.520;13.450;2023-05-17T04:59:18;24.20;57.40
49821;DHT22;36893;52.520;13.450;2023-05-17T05:09:18;24.20;57.60
49821;DHT22;36893;52.520;13.450;2023-05-17T05:19:19;24.20;57.70
49821;DHT22;36893;52.520;13.450;2023-05-17T05:29:20;24.30;57.80
49821;DHT22;36893;52.520;13.450;2023-05-17T05:39:20;24.30;57.90
49821;DHT22;36893;52.520;13.450;2023-05-17T05:49:21;24.30;57.90
49821;DHT22;36893;52.520;13.450;2023-05-17T05:59:22;24.30;58.00
49821;DHT22;36893;52.520;13.450;2023-05-17T06:09:23;24.30;58.10
49821;DHT22;36893;52.520;13.450;2023-05-17T06:19:23;24.30;58.10
49821;DHT22;36893;52.520;13.450;2023-05-17T06:29:24;24.30;58.10
49821;DHT22;36893;52.520;13.450;2023-05-17T06:39:25;24.30;58.20
49821;DHT22;36893;52.520;13.450;2023-05-17T06:49:25;24.30;58.20
49821;DHT22;36893;52.520;13.450;2023-05-17T06:59:26;24.30;58.30
49821;DHT22;36893;52.520;13.450;2023-05-17T07:09:27;24.30;58.30
49821;DHT22;36893;52.520;13.450;2023-05-17T07:19:28;24.30;58.40
49821;DHT22;36893;52.520;13.450;2023-05-17T07:29:29;24.30;58.40
49821;DHT22;36893;52.520;13.450;2023-05-17T07:39:29;24.30;58.30
49821;DHT22;36893;52.520;13.450;2023-05-17T07:49:30;24.30;58.30
49821;DHT22;36893;52.520;13.450;2023-05-17T07:59:31;24.40;58.40
49821;DHT22;36893;52.520;13.450;2023-05-17T08:09:32;24.40;58.40
49821;DHT22;36893;52.520;13.450;2023-05-17T08:19:33;24.40;58.40
49821;DHT22;36893;52.520;13.450;2023-05-17T08:29:34;24.50;58.60
49821;DHT22;36893;52.520;13.450;2023-05-17T08:39:35;24.50;58.90
49821;DHT22;36893;52.520;13.450;2023-05-17T08:49:36;24.50;58.90
49821;DHT22;36893;52.520;13.450;2023-05-17T08:59:38;24.60;59.10
49821;DHT22;36893;52.520;13.450;2023-05-17T09:09:39;24.60;59.10
49821;DHT22;36893;52.520;13.450;2023-05-17T09:19:44;24.60;59.00
49821;DHT22;36893;52.520;13.450;2023-05-17T09:29:45;24.70;59.10
49821;DHT22;36893;52.520;13.450;2023-05-17T09:39:46;24.70;59.00
49821;DHT22;36893;52.520;13.450;2023-05-17T09:49:47;24.70;58.90
49821;DHT22;36893;52.520;13.450;2023-05-17T09:59:48;24.80;58.90
49821;DHT22;36893;52.520;13.450;2023-05-17T10:09:50;24.70;58.90
49821;DHT22;36893;52.520;13.450;2023-05-17T10:19:51;24.80;58.90
49821;DHT22;36893;52.520;13.450;2023-05-17T10:29:52;24.80;58.90
49821;DHT22;36893;52.520;13.450;2023-05-17T10:39:55;24.90;59.00
49821;DHT22;36893;52.520;13.450;2023-05-17T10:49:56;24.90;58.90
49821;DHT22;36893;52.520;13.450;2023-05-17T10:59:59;24.90;59.00
49821;DHT22;36893;52.520;13.450;2023-05-17T11:20:07;24.90;58.90
49821;DHT22;36893;52.520;13.450;2023-05-17T11:30:27;25.00;58.90
49821;DHT22;36893;52.520;13.450;2023-05-17T11:40:28;25.00;59.00
49821;DHT22;36893;52.520;13.450;2023-05-17T11:50:29;25.00;58.90
49821;DHT22;36893;52.520;13.450;2023-05-17T12:00:29;25.10;58.90
49821;DHT22;36893;52.520;13.450;2023-05-17T12:10:30;25.10;58.90
49821;DHT22;36893;52.520;13.450;2023-05-17T12:20:32;25.10;58.90
49821;DHT22;36893;52.520;13.450;2023-05-17T12:30:34;25.10;58.90
49821;DHT22;36893;52.520;13.450;2023-05-17T12:40:35;25.10;58.80
49821;DHT22;36893;52.520;13.450;2023-05-17T12:50:36;25.10;58.80
49821;DHT22;36893;52.520;13.450;2023-05-17T13:00:37;25.10;58.80
49821;DHT22;36893;52.520;13.450;2023-05-17T13:10:37;25.10;58.80
49821;DHT22;36893;52.520;13.450;2023-05-17T13:20:38;25.10;58.80
49821;DHT22;36893;52.520;13.450;2023-05-17T13:30:38;25.10;58.80
49821;DHT22;36893;52.520;13.450;2023-05-17T13:40:39;25.10;58.80
49821;DHT22;36893;52.520;13.450;2023-05-17T13:50:40;25.10;58.80
49821;DHT22;36893;52.520;13.450;2023-05-17T14:00:41;25.10;58.80
49821;DHT22;36893;52.520;13.450;2023-05-17T14:10:43;25.10;58.80
49821;DHT22;36893;52.520;13.450;2023-05-17T14:20:44;25.10;58.70
49821;DHT22;36893;52.520;13.450;2023-05-17T14:30:44;25.10;58.70
49821;DHT22;36893;52.520;13.450;2023-05-17T14:40:46;25.10;58.60
49821;DHT22;36893;52.520;13.450;2023-05-17T14:50:47;25.00;58.40
49821;DHT22;36893;52.520;13.450;2023-05-17T15:00:47;25.00;58.40
49821;DHT22;36893;52.520;13.450;2023-05-17T15:10:50;25.00;58.30
49821;DHT22;36893;52.520;13.450;2023-05-17T15:20:51;25.00;58.20
49821;DHT22;36893;52.520;13.450;2023-05-17T15:31:02;24.90;58.10
49821;DHT22;36893;52.520;13.450;2023-05-17T15:41:10;25.00;58.10
49821;DHT22;36893;52.520;13.450;2023-05-17T15:51:13;24.90;57.90
49821;DHT22;36893;52.520;13.450;2023-05-17T16:01:14;24.90;57.90
49821;DHT22;36893;52.520;13.450;2023-05-17T16:11:15;24.90;57.90
49821;DHT22;36893;52.520;13.450;2023-05-17T16:21:16;24.90;57.80
49821;DHT22;36893;52.520;13.450;2023-05-17T16:31:17;24.90;57.70
49821;DHT22;36893;52.520;13.450;2023-05-17T16:41:18;24.90;57.70
49821;DHT22;36893;52.520;13.450;2023-05-17T16:51:18;24.90;57.60
49821;DHT22;36893;52.520;13.450;2023-05-17T17:01:19;24.80;57.40
49821;DHT22;36893;52.520;13.450;2023-05-17T17:11:20;24.80;57.40
49821;DHT22;36893;52.520;13.450;2023-05-17T17:21:21;24.90;57.40
49821;DHT22;36893;52.520;13.450;2023-05-17T17:31:21;24.90;57.30
49821;DHT22;36893;52.520;13.450;2023-05-17T17:41:22;24.80;57.20
49821;DHT22;36893;52.520;13.450;2023-05-17T17:51:23;24.80;57.10
49821;DHT22;36893;52.520;13.450;2023-05-17T18:01:25;24.80;57.00
49821;DHT22;36893;52.520;13.450;2023-05-17T18:11:26;24.80;57.00
49821;DHT22;36893;52.520;13.450;2023-05-17T18:21:27;24.80;56.90
49821;DHT22;36893;52.520;13.450;2023-05-17T18:31:28;24.80;56.90
49821;DHT22;36893;52.520;13.450;2023-05-17T18:41:29;24.80;56.70
49821;DHT22;36893;52.520;13.450;2023-05-17T18:51:30;24.70;56.60
49821;DHT22;36893;52.520;13.450;2023-05-17T19:01:31;24.70;56.60
49821;DHT22;36893;52.520;13.450;2023-05-17T19:11:32;24.70;56.50
49821;DHT22;36893;52.520;13.450;2023-05-17T19:21:33;24.70;56.50
49821;DHT22;36893;52.520;13.450;2023-05-17T19:31:34;24.60;56.40
49821;DHT22;36893;52.520;13.450;2023-05-17T19:41:34;24.60;56.40
49821;DHT22;36893;52.520;13.450;2023-05-17T19:51:35;24.60;56.40
49821;DHT22;36893;52.520;13.450;2023-05-17T20:01:36;24.60;56.40
49821;DHT22;36893;52.520;13.450;2023-05-17T20:11:36;24.60;56.30
49821;DHT22;36893;52.520;13.450;2023-05-17T20:21:37;24.60;56.30
49821;DHT22;36893;52.520;13.450;2023-05-17T20:31:38;24.60;56.30
49821;DHT22;36893;52.520;13.450;2023-05-17T20:41:39;24.60;56.30
49821;DHT22;36893;52.520;13.450;2023-05-17T20:51:40;24.50;56.30
49821;DHT22;36893;52.520;13.450;2023-05-17T21:01:41;24.60;56.30
49821;DHT22;36893;52.520;13.450;2023-05-17T21:11:42;24.60;56.30
49821;DHT22;36893;52.520;13.450;2023-05-17T21:21:43;24.50;56.20
49821;DHT22;36893;52.520;13.450;2023-05-17T21:31:43;24.50;56.10
49821;DHT22;36893;52.520;13.450;2023-05-17T21:41:44;24.50;56.10
49821;DHT22;36893;52.520;13.450;2023-05-17T21:51:45;24.50;56.10
49821;DHT22;36893;52.520;13.450;2023-05-17T22:01:46;24.50;56.10
49821;DHT22;36893;52.520;13.450;2023-05-17T22:11:46;24.50;56.10
49821;DHT22;36893;52.520;13.450;2023-05-17T22:21:47;24.50;56.10
49821;DHT22;36893;52.520;13.450;2023-05-17T22:31:48;24.50;56.00
49821;DHT22;36893;52.520;13.450;2023-05-17T22:41:49;24.50;56.00
49821;DHT22;36893;52.520;13.450;2023-05-17T22:51:52;24.50;56.00
49821;DHT22;36893;52.520;13.450;2023-05-17T23:01:52;24.50;56.00
49821;DHT22;36893;52.520;13.450;2023-05-17T23:11:53;24.50;56.00
49821;DHT22;36893;52.520;13.450;2023-05-17T23:21:54;24.50;56.00
49821;DHT22;36893;52.520;13.450;2023-05-17T23:31:55;24.40;55.90
49821;DHT22;36893;52.520;13.450;2023-05-17T23:41:56;24.40;55.90
49821;DHT22;36893;52.520;13.450;2023-05-17T23:51:57;24.40;55.90
